Terminal Aerodrome Forecast
Issued by NWS Albany, NY

Home | Current Version | Previous Version | Text Only | Print | Product List | Glossary On
Versions: 1 2 3 4 5 6 7 8 9 10 11 12 13 14 15 16
546
FTUS41 KALY 071122
TAFPOU
TAF
KPOU 071122Z 0712/0812 VRB03KT 2SM -DZ BR BKN003 OVC022
      TEMPO 0712/0715 4SM BR SCT003 OVC022
     FM071500 VRB04KT P6SM SCT008 OVC015
     FM072100 22003KT P6SM SCT040
     FM080300 VRB03KT P6SM SCT040 BKN070=

USA.gov is the U.S. government's official web portal to all federal, state and local government web resources and services.